Flight Track Log - Related Links

Times and Time Zones

All times are in EDT time to prevent confusion due to time zone crossing. See the N20AZ flight status page for this flight to view local times or setup timezone preferences in your user account.

Time Position Orientation Groundspeed Altitude Reporting Facility
EDT Latitude Longitude Course Direction KTS MPH feet Rate Location/Type
Tue 10:04:07 AM 34.0333 -84.6333 310° West 109 125 2,200  Level Atlanta TRACON
Tue 10:05:09 AM 34.0578 -84.6681 310° West 104 120 2,900 590 Climbing Atlanta Center
Tue 10:06:09 AM 34.0828 -84.6733 350° North 104 120 3,400 550 Climbing Atlanta Center
Tue 10:07:09 AM 34.1100 -84.6736 360° North 111 128 4,000 550 Climbing Atlanta Center
Tue 10:08:09 AM 34.1369 -84.6736 360° North 104 120 4,500 550 Climbing Atlanta Center
Tue 10:09:09 AM 34.1642 -84.6764 355° North 104 120 5,100 650 Climbing Atlanta Center
Tue 10:10:09 AM 34.1933 -84.6792 355° North 104 120 5,800 750 Climbing Atlanta Center
Tue 10:11:09 AM 34.2267 -84.6844 353° North 104 120 6,600 450 Climbing Atlanta Center
Tue 10:12:09 AM 34.2581 -84.6972 341° North 104 120 6,700 -250 Climbing Atlanta Center
Tue 10:13:09 AM 34.2953 -84.7178 335° Northwest 136 157 6,100 -300 Descending Atlanta Center
Tue 10:14:09 AM 34.3328 -84.7381 336° Northwest 147 169 6,100 -50 Level Atlanta Center
Tue 10:15:09 AM 34.3683 -84.7586 334° Northwest 147 169 6,000 -50 Descending Atlanta Center
Tue 10:16:09 AM 34.4036 -84.7789 335° Northwest 142 163 6,000  Level Atlanta Center
Tue 10:17:09 AM 34.4411 -84.8044 331° Northwest 142 163 6,000  Level Atlanta Center
Tue 10:18:09 AM 34.4742 -84.8300 327° Northwest 137 158 6,000  Level Atlanta Center
Tue 10:19:09 AM 34.5075 -84.8556 328° Northwest 137 158 6,000  Level Atlanta Center
Tue 10:20:09 AM 34.5406 -84.8861 323° Northwest 137 158 6,000  Level Atlanta Center
Tue 10:21:09 AM 34.5719 -84.9042 335° Northwest 143 165 6,000  Level Atlanta Center
Tue 10:22:09 AM 34.6072 -84.9247 334° Northwest 143 165 6,000  Level Atlanta Center
Tue 10:23:09 AM 34.6383 -84.9503 326° Northwest 136 157 6,000  Level Atlanta Center
Tue 10:24:09 AM 34.6672 -84.9883 313° West 141 162 6,000  Level Atlanta Center
Tue 10:25:09 AM 34.6961 -85.0192 319° Northwest 141 162 6,000  Level Atlanta Center
Tue 10:26:10 AM 34.7231 -85.0522 315° West 136 157 6,000  Level Atlanta Center
Tue 10:27:09 AM 34.7500 -85.0853 315° West 142 163 6,000  Level Atlanta Center
Tue 10:29:00 AM 34.8188 -85.1075 345° North  Level FlightAware Approximate
Tue 10:36:00 AM 35.0447 -85.2757 313° West  Level FlightAware Approximate
Tue 10:37:00 AM 35.0707 -85.3103 313° West  Level FlightAware Approximate
Tue 10:38:00 AM 35.0967 -85.3450 313° West  Level FlightAware Approximate
Tue 10:38:32 AM 35.0547 -85.4614 312° West 143 165 6,000  Level Memphis Center
Tue 10:39:00 AM 35.1227 -85.3797 313° West  Level FlightAware Approximate
Tue 10:39:32 AM 35.0806 -85.4853 323° Northwest 138 159 6,000  Level Memphis Center
Tue 10:40:00 AM 35.1487 -85.4144 312° West  Level FlightAware Approximate
Tue 10:40:32 AM 35.1069 -85.5217 312° West 138 159 6,000  Level Memphis Center
Tue 10:41:00 AM 35.1747 -85.4492 312° West  Level FlightAware Approximate
Tue 10:41:32 AM 35.1311 -85.5533 313° West 138 159 6,000  Level Memphis Center
Tue 10:42:00 AM 35.2007 -85.4839 312° West  Level FlightAware Approximate
Tue 10:42:32 AM 35.1575 -85.5875 313° West 138 159 6,000  Level Memphis Center
Tue 10:43:00 AM 35.2267 -85.5187 312° West  Level FlightAware Approximate
Tue 10:43:32 AM 35.1836 -85.6164 318° Northwest 133 153 6,000  Level Memphis Center
Tue 10:44:32 AM 35.2103 -85.6531 312° West 133 153 6,000  Level Memphis Center
Tue 10:45:32 AM 35.2364 -85.6847 315° West 133 153 6,000  Level Memphis Center
Tue 10:46:32 AM 35.2625 -85.7161 316° Northwest 133 153 6,000  Level Memphis Center
Tue 10:47:32 AM 35.2867 -85.7481 313° West 133 153 6,000  Level Memphis Center
Tue 10:48:32 AM 35.3131 -85.7822 313° West 133 153 6,000  Level Memphis Center
Tue 10:49:32 AM 35.3414 -85.8136 318° Northwest 133 153 6,000  Level Memphis Center
Tue 10:50:32 AM 35.3656 -85.8481 311° West 133 153 6,000  Level Memphis Center
Tue 10:51:32 AM 35.3917 -85.8797 315° West 133 153 6,000  Level Memphis Center
Tue 10:52:32 AM 35.4158 -85.9114 313° West 133 153 6,000  Level Memphis Center
Tue 10:53:32 AM 35.4439 -85.9431 317° Northwest 133 153 6,000  Level Memphis Center
Tue 10:54:32 AM 35.4703 -85.9775 313° West 133 153 6,000  Level Memphis Center
Tue 10:55:32 AM 35.4964 -86.0092 315° West 133 153 6,000  Level Memphis Center
Tue 10:56:32 AM 35.5206 -86.0436 311° West 133 153 6,000  Level Memphis Center
Tue 10:57:32 AM 35.5467 -86.0753 315° West 133 153 6,000  Level Memphis Center
Tue 10:58:32 AM 35.5747 -86.1072 317° Northwest 133 153 6,000  Level Memphis Center
Tue 10:59:33 AM 35.6011 -86.1442 311° West 133 153 6,000  Level Memphis Center
Tue 11:00:32 AM 35.6253 -86.1761 313° West 133 153 6,000  Level Memphis Center
Tue 11:01:32 AM 35.6453 -86.2158 302° West 140 161 6,000 -100 Level Memphis Center
Tue 11:02:32 AM 35.6733 -86.2425 322° Northwest 140 161 5,800 -400 Descending Memphis Center
Tue 11:03:32 AM 35.6994 -86.2772 313° West 135 155 5,200 -600 Descending Memphis Center
Tue 11:04:32 AM 35.7278 -86.3114 316° Northwest 135 155 4,600 -600 Descending Memphis Center
Tue 11:05:32 AM 35.7539 -86.3461 313° West 135 155 4,000 -295 Descending Memphis Center
Tue 11:06:34 AM 35.7800 -86.3858 309° West 135 155 4,000 -50 Level Memphis Center
Tue 11:07:32 AM 35.8022 -86.4231 306° West 135 155 3,900  Descending Memphis Center
Tue 11:08:32 AM 35.8222 -86.4606 303° West 135 155 4,000 50 Climbing Memphis Center
Tue 11:09:32 AM 35.8439 -86.4953 308° West 135 155 4,000  Level Memphis Center
Tue 11:11:49 AM 35.9000 -86.5667 314° West 134 154 4,000  Level Nashville TRACON
Tue 11:12:49 AM 35.9167 -86.6167 292° West 134 154 4,000  Level Nashville TRACON
Tue 11:13:37 AM 35.9333 -86.6333 321° Northwest 133 153 4,000  Level Nashville TRACON
Tue 11:14:37 AM 35.9667 -86.6667 321° Northwest 133 153 4,000  Level Nashville TRACON
Tue 11:15:37 AM 35.9833 -86.7000 302° West 132 152 4,000 -211 Level Nashville TRACON
Tue 11:16:31 AM 36.0167 -86.7333 321° Northwest 133 153 3,600 -476 Descending Nashville TRACON
Tue 11:17:43 AM 36.0333 -86.7833 292° West 139 160 3,000 -333 Descending Nashville TRACON
Tue 11:18:37 AM 36.0667 -86.8000 338° Northwest 134 154 2,900 -111 Descending Nashville TRACON

Login

Don't have an account? Register now (free) for customized features, flight alerts, and more!